Time;durP1;ratioP1;P1;durP2;ratioP2;P2;SDS_P1;SDS_P2;PMS_P1;PMS_P2;Temp;Humidity;BMP_temperature;BMP_pressure;BME280_temperature;BME280_humidity;BME280_pressure;Samples;Min_cycle;Max_cycle;Signal;HPM_P1;HPM_P2
2023/05/10 06:31:01;;;;;;;8.73;5.40;;;;;;;;;;6193307;22;1390350;-83
2023/05/10 06:33:27;;;;;;;6.47;4.07;;;;;;;;;;6268115;22;20459;-87
2023/05/10 06:35:53;;;;;;;4.55;3.95;;;;;;;;;;6240574;22;20428;-85
2023/05/10 06:38:20;;;;;;;4.95;3.95;;;;;;;;;;6214653;22;20037;-85
2023/05/10 06:40:48;;;;;;;4.55;4.15;;;;;;;;;;6216089;22;20023;-87
2023/05/10 06:43:15;;;;;;;5.57;3.97;;;;;;;;;;6266627;22;20019;-87
2023/05/10 06:45:57;;;;;;;;;;;;;;;;;;;;;
2023/05/10 06:48:29;;;;;;;4.38;3.88;;;;;;;;;;6265959;22;20023;-86
2023/05/10 06:50:56;;;;;;;5.97;4.30;;;;;;;;;;6265600;22;20019;-86
2023/05/10 06:53:22;;;;;;;8.90;4.72;;;;;;;;;;6266136;22;20050;-86
2023/05/10 06:55:49;;;;;;;5.93;5.32;;;;;;;;;;6267184;22;20027;-84
2023/05/10 06:58:16;;;;;;;5.45;4.32;;;;;;;;;;6266058;22;20080;-86
2023/05/10 07:00:43;;;;;;;8.88;4.35;;;;;;;;;;6265601;22;20375;-86
2023/05/10 07:03:10;;;;;;;7.97;5.00;;;;;;;;;;6240243;22;20451;-88
2023/05/10 07:05:36;;;;;;;4.40;4.00;;;;;;;;;;6267017;22;20426;-88
2023/05/10 07:08:05;;;;;;;4.82;3.78;;;;;;;;;;6265688;22;20019;-88
2023/05/10 07:10:31;;;;;;;4.70;4.30;;;;;;;;;;6265813;22;20019;-88
2023/05/10 07:13:01;;;;;;;4.03;3.72;;;;;;;;;;6268699;22;20020;-87
2023/05/10 07:15:30;;;;;;;3.88;3.30;;;;;;;;;;6241878;22;20015;-86
2023/05/10 07:18:16;;;;;;;3.38;3.08;;;;;;;;;;6240503;22;20024;-87
2023/05/10 07:20:49;;;;;;;3.00;2.80;;;;;;;;;;6245877;22;20466;-89
2023/05/10 07:23:18;;;;;;;4.10;2.35;;;;;;;;;;6266207;22;20023;-88
2023/05/10 07:25:48;;;;;;;3.00;2.45;;;;;;;;;;6240688;22;20027;-91
2023/05/10 07:28:14;;;;;;;3.63;3.00;;;;;;;;;;6266858;22;20020;-89
2023/05/10 07:30:44;;;;;;;3.33;2.97;;;;;;;;;;6266563;22;20470;-89
2023/05/10 07:33:11;;;;;;;3.72;3.38;;;;;;;;;;6216942;22;20020;-90
2023/05/10 07:35:46;;;;;;;4.95;3.15;;;;;;;;;;6241547;22;20447;-89
2023/05/10 07:38:12;;;;;;;5.25;4.20;;;;;;;;;;6216865;22;20031;-86
2023/05/10 07:40:39;;;;;;;4.68;3.83;;;;;;;;;;6238833;22;20475;-86
2023/05/10 07:43:06;;;;;;;5.10;4.45;;;;;;;;;;6265033;22;20475;-86
2023/05/10 07:45:34;;;;;;;5.07;4.28;;;;;;;;;;6265418;22;20112;-85
2023/05/10 07:48:03;;;;;;;6.05;3.95;;;;;;;;;;6264640;22;20023;-85
2023/05/10 07:50:29;;;;;;;4.75;3.67;;;;;;;;;;6239214;22;20030;-85
2023/05/10 07:52:55;;;;;;;3.90;3.20;;;;;;;;;;6238743;22;20058;-85
2023/05/10 07:55:21;;;;;;;4.63;3.90;;;;;;;;;;6238141;22;20347;-85
2023/05/10 07:57:51;;;;;;;3.72;3.38;;;;;;;;;;6239240;22;20023;-85
2023/05/10 08:00:18;;;;;;;4.05;3.33;;;;;;;;;;6238910;22;20023;-85
2023/05/10 08:02:47;;;;;;;3.38;3.08;;;;;;;;;;6239594;22;20019;-86
2023/05/10 08:05:14;;;;;;;3.60;3.13;;;;;;;;;;6264992;22;20015;-86
2023/05/10 08:07:40;;;;;;;3.55;3.25;;;;;;;;;;6238688;22;20028;-86
2023/05/10 08:10:10;;;;;;;6.38;4.80;;;;;;;;;;6264838;22;20452;-85
2023/05/10 08:12:37;;;;;;;5.68;4.38;;;;;;;;;;6270151;22;20045;-85
2023/05/10 08:15:04;;;;;;;5.07;4.55;;;;;;;;;;6239343;22;20020;-86
2023/05/10 08:17:35;;;;;;;5.15;4.38;;;;;;;;;;6265176;22;20027;-85
2023/05/10 08:20:05;;;;;;;7.10;4.25;;;;;;;;;;6267298;22;20027;-85
2023/05/10 08:22:34;;;;;;;6.53;4.63;;;;;;;;;;6239277;22;20592;-85
2023/05/10 08:25:00;;;;;;;8.32;5.07;;;;;;;;;;6240256;22;20178;-86
2023/05/10 08:27:26;;;;;;;6.20;4.85;;;;;;;;;;6266926;22;20052;-85
2023/05/10 08:29:53;;;;;;;6.20;5.50;;;;;;;;;;6265471;22;20490;-84
2023/05/10 08:32:21;;;;;;;6.75;5.80;;;;;;;;;;6239179;22;20153;-85
2023/05/10 08:34:48;;;;;;;5.72;4.88;;;;;;;;;;6213960;22;20020;-83
2023/05/10 08:37:16;;;;;;;6.97;4.57;;;;;;;;;;6265601;22;20015;-84
2023/05/10 08:39:47;;;;;;;7.65;4.40;;;;;;;;;;6263702;22;20085;-83
2023/05/10 08:42:17;;;;;;;5.50;4.93;;;;;;;;;;6263768;22;20029;-83
2023/05/10 08:44:43;;;;;;;5.72;4.60;;;;;;;;;;6264332;22;20020;-85
2023/05/10 08:47:14;;;;;;;6.10;5.22;;;;;;;;;;6266726;22;20094;-84
2023/05/10 08:49:43;;;;;;;6.93;4.93;;;;;;;;;;6237632;22;20027;-84
2023/05/10 08:52:11;;;;;;;4.57;4.18;;;;;;;;;;6238118;22;20043;-83
2023/05/10 08:54:38;;;;;;;5.30;4.43;;;;;;;;;;6264639;22;20016;-86
2023/05/10 08:57:05;;;;;;;4.82;3.88;;;;;;;;;;6264460;22;20022;-83
2023/05/10 08:59:34;;;;;;;4.78;3.85;;;;;;;;;;6263455;22;20058;-83
2023/05/10 09:02:01;;;;;;;8.48;3.70;;;;;;;;;;6235938;22;20028;-83
2023/05/10 09:04:27;;;;;;;5.97;4.32;;;;;;;;;;6264738;22;20045;-84
2023/05/10 09:06:54;;;;;;;4.80;3.97;;;;;;;;;;6238293;22;20016;-83
2023/05/10 09:12:10;;;;;;;8.52;5.32;;;;;;;;;;6263003;22;20080;-83
2023/05/10 09:14:37;;;;;;;9.90;4.85;;;;;;;;;;6237089;22;20023;-83
2023/05/10 09:17:03;;;;;;;8.05;5.38;;;;;;;;;;6264657;22;20340;-83
2023/05/10 09:19:29;;;;;;;6.32;5.35;;;;;;;;;;6237132;22;20051;-83
2023/05/10 09:21:56;;;;;;;9.80;5.88;;;;;;;;;;6236990;22;20030;-83
2023/05/10 09:24:26;;;;;;;9.30;6.68;;;;;;;;;;6236562;22;20019;-82
2023/05/10 09:26:52;;;;;;;8.50;6.03;;;;;;;;;;6261890;22;20069;-81
2023/05/10 09:29:21;;;;;;;10.68;6.00;;;;;;;;;;6263669;22;20413;-82
2023/05/10 09:31:51;;;;;;;6.93;5.18;;;;;;;;;;6236774;22;20024;-82
2023/05/10 09:34:20;;;;;;;6.65;4.50;;;;;;;;;;6236364;22;20062;-83
2023/05/10 09:36:54;;;;;;;4.82;4.35;;;;;;;;;;6262862;22;20016;-82
2023/05/10 09:39:20;;;;;;;8.75;5.28;;;;;;;;;;6262137;22;20015;-81
2023/05/10 09:41:46;;;;;;;6.10;4.72;;;;;;;;;;6262062;22;22395;-81
2023/05/10 09:44:13;;;;;;;5.95;4.93;;;;;;;;;;6236877;22;20019;-81
2023/05/10 09:46:39;;;;;;;4.57;3.95;;;;;;;;;;6237026;22;20016;-81
2023/05/10 09:49:05;;;;;;;5.30;3.97;;;13.70;99.90;;;;;;6211540;22;20015;-82
2023/05/10 09:51:32;;;;;;;7.93;4.60;;;;;;;;;;6262029;22;20370;-82
2023/05/10 09:54:11;;;;;;;8.02;4.45;;;;;;;;;;6236664;22;20019;-81
2023/05/10 09:56:39;;;;;;;6.15;3.80;;;13.90;99.90;;;;;;6212049;22;20015;-81
2023/05/10 09:59:06;;;;;;;4.78;3.72;;;;;;;;;;6236522;22;20070;-81
2023/05/10 10:01:32;;;;;;;5.13;4.40;;;;;;;;;;6261674;22;20019;-82
2023/05/10 10:03:58;;;;;;;7.43;4.45;;;;;;;;;;6236509;22;20509;-81
2023/05/10 10:06:25;;;;;;;4.78;4.07;;;;;;;;;;6211076;22;20038;-82
2023/05/10 10:08:52;;;;;;;4.78;4.30;;;;;;;;;;6261113;22;20491;-82
2023/05/10 10:11:18;;;;;;;5.30;4.35;;;;;;;;;;6236008;22;20330;-81
2023/05/10 10:13:44;;;;;;;5.28;4.78;;;;;;;;;;6261430;22;20489;-80
2023/05/10 10:16:10;;;;;;;5.10;4.55;;;;;;;;;;6261889;22;20702;-81
2023/05/10 10:18:40;;;;;;;5.60;5.00;;;;;;;;;;6237066;22;20019;-81
2023/05/10 10:21:08;;;;;;;7.93;5.07;;;;;;;;;;6236128;22;20094;-81
2023/05/10 10:23:38;;;;;;;6.65;5.72;;;;;;;;;;6236934;22;20023;-82
2023/05/10 10:26:11;;;;;;;5.90;5.28;;;;;;;;;;6237690;22;20062;-81
2023/05/10 10:29:03;;;;;;;6.45;5.45;;;13.90;99.90;;;;;;6263094;22;20072;-81
2023/05/10 10:31:55;;;;;;;6.65;5.10;;;14.20;99.90;;;;;;6218249;22;20024;-81
2023/05/10 10:34:32;;;;;;;6.60;5.60;;;;;;;;;;6265298;22;20622;-81
2023/05/10 10:36:58;;;;;;;8.05;6.18;;;;;;;;;;6264310;22;20016;-81
2023/05/10 10:39:25;;;;;;;9.30;6.75;;;;;;;;;;6264491;22;20097;-81
2023/05/10 10:41:52;;;;;;;10.95;6.82;;;;;;;;;;6238410;22;20023;-82
2023/05/10 10:44:27;;;;;;;13.45;7.00;;;;;;;;;;6265496;22;20055;-84
2023/05/10 10:50:24;;;;;;;9.20;5.40;;;;;;;;;;6267459;22;20027;-82
2023/05/10 10:52:51;;;;;;;14.70;7.75;;;;;;;;;;6241104;22;20023;-81
2023/05/10 10:55:18;;;;;;;9.45;6.55;;;;;;;;;;6216454;22;20026;-82
2023/05/10 10:58:00;;;;;;;11.48;7.35;;;;;;;;;;6268219;22;20070;-83
2023/05/10 11:00:27;;;;;;;11.02;7.00;;;;;;;;;;6242810;22;20026;-82
2023/05/10 11:02:59;;;;;;;8.95;6.78;;;;;;;;;;6265437;22;20019;-82
2023/05/10 11:05:36;;;;;;;8.30;6.47;;;;;;;;;;6238965;22;20098;-82
2023/05/10 11:08:15;;;;;;;8.90;6.38;;;;;;;;;;6264083;22;20743;-82
2023/05/10 11:10:51;;;;;;;9.60;6.45;;;;;;;;;;6264055;22;20020;-82
2023/05/10 11:13:49;;;;;;;7.70;5.82;;;14.20;99.90;;;;;;6263263;22;20020;-82
2023/05/10 11:16:20;;;;;;;8.93;6.00;;;;;;;;;;6264123;22;20519;-82
2023/05/10 11:18:53;;;;;;;6.40;5.30;;;;;;;;;;6263380;22;20026;-82
2023/05/10 11:21:19;;;;;;;8.32;6.35;;;;;;;;;;6263111;22;20023;-82
2023/05/10 11:23:50;;;;;;;9.07;6.22;;;;;;;;;;6236738;22;20058;-83
2023/05/10 11:26:18;;;;;;;11.27;6.45;;;14.20;99.90;;;;;;6263234;22;20023;-81
2023/05/10 11:28:48;;;;;;;9.65;6.93;;;14.30;99.90;;;;;;6263291;22;20042;-81
2023/05/10 11:31:17;;;;;;;10.45;6.90;;;;;;;;;;6237355;22;20022;-81
2023/05/10 11:33:47;;;;;;;6.43;5.50;;;;;;;;;;6237294;22;20033;-82
2023/05/10 11:36:17;;;;;;;9.50;6.32;;;;;;;;;;6237193;22;20456;-81
2023/05/10 11:38:43;;;;;;;7.95;6.00;;;;;;;;;;6263288;22;20020;-81
2023/05/10 11:41:11;;;;;;;9.40;6.47;;;;;;;;;;6237425;22;20023;-81
2023/05/10 11:43:38;;;;;;;7.18;4.97;;;;;;;;;;6237604;22;20077;-82
2023/05/10 11:46:08;;;;;;;9.93;6.25;;;;;;;;;;6262034;22;20279;-81
2023/05/10 11:48:34;;;;;;;7.18;6.32;;;;;;;;;;6237008;22;20019;-81
2023/05/10 11:51:01;;;;;;;10.35;6.25;;;14.10;99.90;;;;;;6262103;22;20030;-81
2023/05/10 11:53:31;;;;;;;11.15;6.38;;;14.30;99.90;;;;;;6261111;22;20099;-81
2023/05/10 11:56:03;;;;;;;11.68;7.43;;;;;;;;;;6237218;22;20095;-81
2023/05/10 11:58:31;;;;;;;11.98;7.78;;;;;;;;;;6237303;22;20069;-81
2023/05/10 12:00:58;;;;;;;12.70;8.13;;;;;;;;;;6236346;22;20018;-81
2023/05/10 12:03:42;;;;;;;9.05;7.22;;;;;;;;;;6264809;22;20103;-81
2023/05/10 12:06:15;;;;;;;12.88;7.85;;;;;;;;;;6216155;22;20093;-81
2023/05/10 12:08:45;;;;;;;14.75;7.00;;;14.30;99.90;;;;;;6261341;22;20020;-81
2023/05/10 12:11:21;;;;;;;8.32;7.03;;;;;;;;;;6261753;22;20048;-81
2023/05/10 12:13:58;;;;;;;;;;;;;;;;;;;;;
2023/05/10 12:16:38;;;;;;;10.52;6.88;;;14.60;99.90;;;;;;6243645;22;20467;-81
2023/05/10 12:19:17;;;;;;;10.65;6.40;;;;;;;;;;6255551;22;20019;-81
2023/05/10 12:21:44;;;;;;;9.13;6.47;;;;;;;;;;6263827;22;20440;-81
2023/05/10 12:24:11;;;;;;;8.65;6.25;;;;;;;;;;6237118;22;20102;-81
2023/05/10 12:26:39;;;;;;;12.60;6.60;;;14.50;99.90;;;;;;6236965;22;20054;-81
2023/05/10 12:29:16;;;;;;;8.55;6.38;;;14.60;99.90;;;;;;6261221;22;20084;-82
2023/05/10 12:32:03;;;;;;;10.77;6.82;;;;;;;;;;6260236;22;20015;-81
2023/05/10 12:34:35;;;;;;;8.88;6.35;;;14.70;99.90;;;;;;6263812;22;20020;-81
2023/05/10 12:37:02;;;;;;;8.70;6.47;;;;;;;;;;6236585;22;20479;-81
2023/05/10 12:39:42;;;;;;;14.23;7.63;;;14.60;99.90;;;;;;6237882;22;20011;-80
2023/05/10 12:42:09;;;;;;;11.32;7.22;;;;;;;;;;6236272;22;20015;-81
2023/05/10 12:44:37;;;;;;;8.05;6.10;;;;;;;;;;6236208;22;20023;-82
2023/05/10 12:47:03;;;;;;;9.50;6.68;;;;;;;;;;6261019;22;20565;-80
2023/05/10 12:49:29;;;;;;;7.57;6.22;;;;;;;;;;6262931;22;20038;-81
2023/05/10 12:51:55;;;;;;;8.88;6.53;;;;;;;;;;6262467;22;20462;-81
2023/05/10 12:54:21;;;;;;;9.85;6.13;;;;;;;;;;6237807;22;20024;-80
2023/05/10 12:56:54;;;;;;;8.25;6.65;;;;;;;;;;6237410;22;20040;-81
2023/05/10 12:59:20;;;;;;;10.35;6.75;;;;;;;;;;6263101;22;20030;-81
2023/05/10 13:01:46;;;;;;;9.23;6.60;;;;;;;;;;6261914;22;20020;-81
2023/05/10 13:04:12;;;;;;;7.85;6.43;;;;;;;;;;6237430;22;20026;-81
2023/05/10 13:07:00;;;;;;;11.27;7.38;;;14.80;99.90;;;;;;6264113;22;20082;-81
2023/05/10 13:09:43;;;;;;;11.98;7.15;;;;;;;;;;6246084;22;20020;-81
2023/05/10 13:12:15;;;;;;;8.65;6.78;;;;;;;;;;6241596;22;20020;-81
2023/05/10 13:14:41;;;;;;;12.52;8.18;;;;;;;;;;6215415;22;20035;-81
2023/05/10 13:17:24;;;;;;;10.35;6.85;;;14.90;99.90;;;;;;6240932;22;20627;-81
2023/05/10 13:19:50;;;;;;;9.25;7.78;;;;;;;;;;6267030;22;20027;-81
2023/05/10 13:22:16;;;;;;;10.57;7.68;;;;;;;;;;6262470;22;20023;-81
2023/05/10 13:24:41;;;;;;;11.52;8.07;;;15.10;99.90;;;;;;6262756;22;20033;-81
2023/05/10 13:27:08;;;;;;;14.82;7.43;;;;;;;;;;6237956;22;20016;-81
2023/05/10 13:29:34;;;;;;;9.60;7.38;;;;;;;;;;6237577;22;20099;-81
2023/05/10 13:32:00;;;;;;;10.55;7.03;;;;;;;;;;6236067;22;20016;-81
2023/05/10 13:34:26;;;;;;;9.27;7.03;;;;;;;;;;6236591;22;20516;-81
2023/05/10 13:36:56;;;;;;;11.48;7.20;;;;;;;;;;6262054;22;20020;-81
2023/05/10 13:39:33;;;;;;;9.93;7.57;;;;;;;;;;6236427;22;20367;-82
2023/05/10 13:42:06;;;;;;;8.82;6.65;;;;;;;;;;6261890;22;20059;-82
2023/05/10 13:44:35;;;;;;;7.93;6.03;;;;;;;;;;6262374;22;20638;-81
2023/05/10 13:47:02;;;;;;;12.13;6.85;;;;;;;;;;6262409;22;20055;-81
2023/05/10 13:49:28;;;;;;;12.25;7.05;;;;;;;;;;6263067;22;20008;-82
2023/05/10 13:51:54;;;;;;;14.00;6.35;;;;;;;;;;6263457;22;20059;-81
2023/05/10 13:54:21;;;;;;;9.45;7.35;;;;;;;;;;6235849;22;20016;-81
2023/05/10 13:56:48;;;;;;;9.23;6.78;;;;;;;;;;6236267;22;20020;-81
2023/05/10 13:59:14;;;;;;;10.98;7.93;;;;;;;;;;6261636;22;20447;-81
2023/05/10 14:01:41;;;;;;;12.48;8.75;;;;;;;;;;6261209;22;20099;-81
2023/05/10 14:04:09;;;;;;;11.65;8.48;;;;;;;;;;6235295;22;20448;-82
2023/05/10 14:06:36;;;;;;;11.27;8.93;;;;;;;;;;6238009;22;20105;-81
2023/05/10 14:09:02;;;;;;;9.90;7.78;;;;;;;;;;6263301;22;20080;-81
2023/05/10 14:11:28;;;;;;;10.85;8.93;;;;;;;;;;6263426;22;20016;-81
2023/05/10 14:13:54;;;;;;;13.27;7.75;;;;;;;;;;6263788;22;20020;-81
2023/05/10 14:16:21;;;;;;;11.15;8.15;;;;;;;;;;6263702;22;20016;-81
2023/05/10 14:18:47;;;;;;;12.35;7.75;;;;;;;;;;6263572;22;20023;-81
2023/05/10 14:21:13;;;;;;;11.77;8.95;;;15.60;99.90;;;;;;6263869;22;20520;-82
2023/05/10 14:23:39;;;;;;;11.45;8.98;;;;;;;;;;6237925;22;20020;-82
2023/05/10 14:26:06;;;;;;;17.10;9.05;;;;;;;;;;6238136;22;20015;-81
2023/05/10 14:28:32;;;;;;;11.85;8.07;;;;;;;;;;6238689;22;20023;-82
2023/05/10 14:30:58;;;;;;;13.32;9.95;;;;;;;;;;6212970;22;20460;-81
2023/05/10 14:33:24;;;;;;;13.05;8.32;;;;;;;;;;6237359;22;20026;-81
2023/05/10 14:35:51;;;;;;;13.20;8.90;;;;;;;;;;6263537;22;21168;-82
2023/05/10 14:38:17;;;;;;;11.57;8.35;;;;;;;;;;6238133;22;20016;-82
2023/05/10 14:40:43;;;;;;;10.25;7.28;;;;;;;;;;6238744;22;20023;-82
2023/05/10 14:43:17;;;;;;;8.95;7.47;;;;;;;;;;6263912;22;20099;-81
2023/05/10 14:45:43;;;;;;;13.43;8.30;;;;;;;;;;6238054;22;20090;-82
2023/05/10 14:48:12;;;;;;;12.30;9.07;;;;;;;;;;6213209;22;20020;-80
2023/05/10 14:50:39;;;;;;;11.82;8.45;;;;;;;;;;6214343;22;20016;-80
2023/05/10 14:53:07;;;;;;;11.75;8.27;;;;;;;;;;6238699;22;20019;-81
2023/05/10 14:55:34;;;;;;;10.75;8.95;;;;;;;;;;6263774;22;20408;-81
2023/05/10 14:58:01;;;;;;;13.18;8.95;;;;;;;;;;6213013;22;20023;-81
2023/05/10 15:00:28;;;;;;;9.77;7.30;;;;;;;;;;6263310;22;20020;-81
2023/05/10 15:02:54;;;;;;;9.43;7.35;;;;;;;;;;6263349;22;20084;-81
2023/05/10 15:05:20;;;;;;;9.00;7.13;;;;;;;;;;6237420;22;20027;-81
2023/05/10 15:07:46;;;;;;;7.85;6.00;;;;;;;;;;6238130;22;20098;-81
2023/05/10 15:10:13;;;;;;;6.40;4.97;;;;;;;;;;6213054;22;20034;-81
2023/05/10 15:12:39;;;;;;;5.60;4.97;;;;;;;;;;6238116;22;20029;-81
2023/05/10 15:15:06;;;;;;;5.97;5.15;;;;;;;;;;6237360;22;20059;-81
2023/05/10 15:17:32;;;;;;;4.88;4.38;;;;;;;;;;6238263;22;20024;-81
2023/05/10 15:19:58;;;;;;;6.72;5.57;;;;;;;;;;6237833;22;20444;-81
2023/05/10 15:22:25;;;;;;;10.30;4.80;;;;;;;;;;6237984;22;20452;-81
2023/05/10 15:24:51;;;;;;;5.20;4.30;;;;;;;;;;6237648;22;20020;-81
2023/05/10 15:27:17;;;;;;;5.50;5.00;;;;;;;;;;6263289;22;20452;-82
2023/05/10 15:29:43;;;;;;;6.15;5.25;;;;;;;;;;6238349;22;20455;-80
2023/05/10 15:32:09;;;;;;;8.68;7.47;;;;;;;;;;6263208;22;20073;-82
2023/05/10 15:34:35;;;;;;;9.13;7.38;;;;;;;;;;6237435;22;20018;-81
2023/05/10 15:37:01;;;;;;;10.35;8.23;;;;;;;;;;6263234;22;20407;-80
2023/05/10 15:39:27;;;;;;;10.18;7.40;;;;;;;;;;6238079;22;20016;-81
2023/05/10 15:41:53;;;;;;;16.55;7.82;;;;;;;;;;6262342;22;20102;-81
2023/05/10 15:44:19;;;;;;;9.90;7.20;;;;;;;;;;6262922;22;20023;-81
2023/05/10 15:46:46;;;;;;;12.52;8.60;;;;;;;;;;6236895;22;20015;-81
2023/05/10 15:49:12;;;;;;;9.73;6.90;;;;;;;;;;6262729;22;20024;-81
2023/05/10 15:51:38;;;;;;;10.18;7.18;;;;;;;;;;6237154;22;20070;-83
2023/05/10 15:54:06;;;;;;;8.20;7.10;;;;;;;;;;6237348;22;20012;-83
2023/05/10 15:56:33;;;;;;;9.23;6.97;;;;;;;;;;6211809;22;20019;-82
2023/05/10 15:58:59;;;;;;;7.57;5.95;;;;;;;;;;6262728;22;20020;-84
2023/05/10 16:01:27;;;;;;;7.40;5.45;;;;;;;;;;6261885;22;20494;-83
2023/05/10 16:03:53;;;;;;;7.00;5.85;;;;;;;;;;6236821;22;20493;-82
2023/05/10 16:06:19;;;;;;;6.22;5.63;;;;;;;;;;6237859;22;20482;-81
2023/05/10 16:08:45;;;;;;;6.65;5.72;;;;;;;;;;6211534;22;20019;-82
2023/05/10 16:11:11;;;;;;;6.60;5.75;;;;;;;;;;6236675;22;20498;-82
2023/05/10 16:13:37;;;;;;;6.28;5.47;;;;;;;;;;6262894;22;20020;-82
2023/05/10 16:16:04;;;;;;;6.30;5.25;;;15.70;99.90;;;;;;6263393;22;20016;-82
2023/05/10 16:18:30;;;;;;;5.78;5.00;;;;;;;;;;6241971;22;20075;-83
2023/05/10 16:20:58;;;;;;;5.88;5.28;;;;;;;;;;6248304;22;20016;-82
2023/05/10 16:23:24;;;;;;;6.75;5.90;;;;;;;;;;6273752;22;20356;-84
2023/05/10 16:25:50;;;;;;;5.82;5.25;;;;;;;;;;6248566;22;20229;-82
2023/05/10 16:28:17;;;;;;;6.40;5.05;;;;;;;;;;6222933;22;20051;-82
2023/05/10 16:30:43;;;;;;;5.50;5.00;;;;;;;;;;6223442;22;20035;-82
2023/05/10 16:33:09;;;;;;;5.10;4.60;;;;;;;;;;6248358;22;20095;-83
2023/05/10 16:35:35;;;;;;;5.28;4.78;;;;;;;;;;6248329;22;20019;-82
2023/05/10 16:38:01;;;;;;;9.20;4.70;;;;;;;;;;6273677;22;20022;-80
2023/05/10 16:40:27;;;;;;;5.60;5.10;;;;;;;;;;6274070;22;20094;-81
2023/05/10 16:42:53;;;;;;;6.07;5.30;;;;;;;;;;6248282;22;20020;-80
2023/05/10 16:45:19;;;;;;;6.60;5.05;;;;;;;;;;6248136;22;20050;-81
2023/05/10 16:47:45;;;;;;;8.02;5.80;;;;;;;;;;6248277;22;20054;-81
2023/05/10 16:50:11;;;;;;;5.47;4.70;;;;;;;;;;6248323;22;20076;-81
2023/05/10 16:52:38;;;;;;;5.38;4.85;;;;;;;;;;6248226;22;20460;-80
2023/05/10 16:55:04;;;;;;;6.72;5.35;;;;;;;;;;6248401;22;20018;-80
2023/05/10 16:57:31;;;;;;;7.28;5.30;;;15.00;99.90;;;;;;6275648;22;20019;-81
2023/05/10 16:59:57;;;;;;;8.07;5.88;;;14.90;99.90;;;;;;6273911;22;20019;-81
2023/05/10 17:02:23;;;;;;;5.82;5.22;;;15.10;99.90;;;;;;6248165;22;20015;-81
2023/05/10 17:04:51;;;;;;;5.88;5.28;;;;;;;;;;6273633;22;20394;-81
2023/05/10 17:07:18;;;;;;;10.00;5.03;;;;;;;;;;6248760;22;20134;-80
2023/05/10 17:09:44;;;;;;;7.20;5.57;;;;;;;;;;6248222;22;20012;-80
2023/05/10 17:12:10;;;;;;;7.00;5.50;;;;;;;;;;6248163;22;20012;-82
2023/05/10 17:14:39;;;;;;;6.70;5.45;;;;;;;;;;6248460;22;20019;-82
2023/05/10 17:17:06;;;;;;;7.20;6.03;;;;;;;;;;6248189;22;20050;-80
2023/05/10 17:19:32;;;;;;;5.93;5.30;;;;;;;;;;6273919;22;20094;-81
2023/05/10 17:21:58;;;;;;;6.03;5.38;;;;;;;;;;6248897;22;20016;-81
2023/05/10 17:24:28;;;;;;;6.45;5.03;;;;;;;;;;6224266;22;20468;-81
2023/05/10 17:26:54;;;;;;;6.93;5.25;;;;;;;;;;6275603;22;20023;-82
2023/05/10 17:29:20;;;;;;;6.03;5.43;;;14.70;99.90;;;;;;6249097;22;20020;-82
2023/05/10 17:31:46;;;;;;;6.53;5.82;;;;;;;;;;6249154;22;20012;-81
2023/05/10 17:34:12;;;;;;;7.65;6.28;;;;;;;;;;6248935;22;20024;-82
2023/05/10 17:36:39;;;;;;;6.65;5.95;;;;;;;;;;6249472;22;20491;-82
2023/05/10 17:39:05;;;;;;;6.45;5.85;;;;;;;;;;6250663;22;20015;-81
2023/05/10 17:41:31;;;;;;;7.05;6.35;;;;;;;;;;6251256;22;20012;-81
2023/05/10 17:43:57;;;;;;;7.82;6.15;;;;;;;;;;6251203;22;20019;-82
2023/05/10 17:46:24;;;;;;;6.07;5.43;;;;;;;;;;6251897;22;20515;-81
2023/05/10 17:48:50;;;;;;;6.82;5.50;;;;;;;;;;6252108;22;20053;-81
2023/05/10 17:51:16;;;;;;;7.15;5.65;;;;;;;;;;6277038;22;20344;-81
2023/05/10 17:53:43;;;;;;;6.80;6.00;;;;;;;;;;6276139;22;20072;-81
2023/05/10 17:56:21;;;;;;;5.47;4.78;;;14.60;99.90;;;;;;6253156;22;20077;-82
2023/05/10 17:59:06;;;;;;;5.40;4.65;;;;;;;;;;6276119;22;20201;-81
2023/05/10 18:01:32;;;;;;;5.70;4.90;;;;;;;;;;6275824;22;20015;-82
2023/05/10 18:03:59;;;;;;;4.25;3.75;;;14.80;99.90;;;;;;6277241;22;20436;-82
2023/05/10 18:06:25;;;;;;;6.05;4.03;;;;;;;;;;6250346;22;20012;-82
2023/05/10 18:08:51;;;;;;;4.68;4.22;;;;;;;;;;6225087;22;20527;-82
2023/05/10 18:11:17;;;;;;;5.10;4.60;;;;;;;;;;6250174;22;20055;-82
2023/05/10 18:13:45;;;;;;;5.10;4.60;;;;;;;;;;6275841;22;20019;-83
2023/05/10 18:16:12;;;;;;;8.00;4.57;;;;;;;;;;6249937;22;20015;-82
2023/05/10 18:18:40;;;;;;;6.57;3.95;;;;;;;;;;6249974;22;20016;-83
2023/05/10 18:21:13;;;;;;;5.85;4.30;;;;;;;;;;6252084;22;20012;-82
2023/05/10 18:23:39;;;;;;;4.90;4.15;;;;;;;;;;6275387;22;20344;-81
2023/05/10 18:26:11;;;;;;;4.72;4.25;;;;;;;;;;6227253;22;20016;-81
2023/05/10 18:28:37;;;;;;;5.88;5.03;;;;;;;;;;6249779;22;20069;-81
2023/05/10 18:31:04;;;;;;;5.97;4.70;;;;;;;;;;6224886;22;20012;-83
2023/05/10 18:33:30;;;;;;;8.50;5.63;;;;;;;;;;6275064;22;20027;-81
2023/05/10 18:36:01;;;;;;;5.68;4.55;;;;;;;;;;6251170;22;20016;-83
2023/05/10 18:38:28;;;;;;;5.30;4.80;;;;;;;;;;6249817;22;20073;-82
2023/05/10 18:40:59;;;;;;;5.05;4.20;;;;;;;;;;6275207;22;20408;-80
2023/05/10 18:43:25;;;;;;;6.70;5.03;;;;;;;;;;6275224;22;20020;-80
2023/05/10 18:45:52;;;;;;;6.82;5.55;;;;;;;;;;6275316;22;20098;-81
2023/05/10 18:48:18;;;;;;;5.97;5.38;;;;;;;;;;6275263;22;20026;-81
2023/05/10 18:50:43;;;;;;;5.05;4.55;;;14.00;99.90;;;;;;6224193;22;20150;-82
2023/05/10 18:53:11;;;;;;;5.72;5.03;;;;;;;;;;6249970;22;20051;-84
2023/05/10 18:55:37;;;;;;;5.88;4.78;;;;;;;;;;6249834;22;20322;-83
2023/05/10 18:58:03;;;;;;;6.28;5.38;;;;;;;;;;6249620;22;20023;-84
2023/05/10 19:00:33;;;;;;;5.53;4.95;;;;;;;;;;6274263;22;20016;-82
2023/05/10 19:02:59;;;;;;;9.32;6.25;;;;;;;;;;6238127;22;20023;-81
2023/05/10 19:05:29;;;;;;;6.43;5.65;;;;;;;;;;6263342;22;20023;-83
2023/05/10 19:07:56;;;;;;;6.80;6.10;;;;;;;;;;6240010;22;20027;-82
2023/05/10 19:10:22;;;;;;;7.72;5.38;;;;;;;;;;6239300;22;20035;-82
2023/05/10 19:12:48;;;;;;;7.75;6.25;;;;;;;;;;6264275;22;20094;-81
2023/05/10 19:15:14;;;;;;;8.38;6.45;;;;;;;;;;6264431;22;20012;-81
2023/05/10 19:17:40;;;;;;;6.35;5.75;;;;;;;;;;6239453;22;20058;-83
2023/05/10 19:20:07;;;;;;;6.85;5.30;;;;;;;;;;6264526;22;20024;-81
2023/05/10 19:22:33;;;;;;;6.53;5.80;;;;;;;;;;6239336;22;20098;-84
2023/05/10 19:24:59;;;;;;;7.95;5.72;;;;;;;;;;6264233;22;20409;-84
2023/05/10 19:27:25;;;;;;;7.47;6.07;;;;;;;;;;6238974;22;20019;-84
2023/05/10 19:29:57;;;;;;;6.18;5.38;;;;;;;;;;6239950;22;20026;-81
2023/05/10 19:32:24;;;;;;;8.07;5.80;;;;;;;;;;6238513;22;20020;-83
2023/05/10 19:34:51;;;;;;;5.93;5.32;;;13.00;99.90;;;;;;6263746;22;20471;-83
2023/05/10 19:37:17;;;;;;;5.93;5.00;;;;;;;;;;6264024;22;20023;-82
2023/05/10 19:39:48;;;;;;;6.88;5.75;;;;;;;;;;6264131;22;20065;-81
2023/05/10 19:42:15;;;;;;;8.23;5.72;;;;;;;;;;6213530;22;20026;-82
2023/05/10 19:44:41;;;;;;;5.97;5.28;;;;;;;;;;6238888;22;20903;-82
2023/05/10 19:47:08;;;;;;;9.77;5.53;;;;;;;;;;6238971;22;20490;-82
2023/05/10 19:49:38;;;;;;;6.18;5.07;;;;;;;;;;6264121;22;20098;-82
2023/05/10 19:52:06;;;;;;;6.53;5.15;;;;;;;;;;6238809;22;20460;-83
2023/05/10 19:54:32;;;;;;;7.18;5.88;;;;;;;;;;6238680;22;20062;-81
2023/05/10 19:56:59;;;;;;;6.00;4.90;;;;;;;;;;6238665;22;20020;-81
2023/05/10 19:59:25;;;;;;;7.63;5.72;;;;;;;;;;6264030;22;20037;-82
2023/05/10 20:01:51;;;;;;;8.00;6.22;;;;;;;;;;6237757;22;20627;-81
2023/05/10 20:04:18;;;;;;;7.18;5.55;;;;;;;;;;6263760;22;20100;-81
2023/05/10 20:06:45;;;;;;;8.18;5.82;;;;;;;;;;6264041;22;20478;-81
2023/05/10 20:09:11;;;;;;;9.18;6.65;;;13.10;99.90;;;;;;6263927;22;20047;-82
2023/05/10 20:11:37;;;;;;;8.45;5.85;;;;;;;;;;6264065;22;20309;-81
2023/05/10 20:14:03;;;;;;;8.18;6.13;;;;;;;;;;6238744;22;20460;-82
2023/05/10 20:16:31;;;;;;;8.85;5.68;;;;;;;;;;6238395;22;20019;-81
2023/05/10 20:18:57;;;;;;;9.48;5.80;;;;;;;;;;6238805;22;20026;-83
2023/05/10 20:21:25;;;;;;;9.15;7.13;;;;;;;;;;6238760;22;20553;-85
2023/05/10 20:23:51;;;;;;;11.32;6.78;;;;;;;;;;6213908;22;20019;-82
2023/05/10 20:26:17;;;;;;;8.80;6.30;;;;;;;;;;6213339;22;20016;-83
2023/05/10 20:28:43;;;;;;;8.55;6.35;;;;;;;;;;6263657;22;20027;-81
2023/05/10 20:31:09;;;;;;;8.48;6.40;;;;;;;;;;6213746;22;20051;-81
2023/05/10 20:33:35;;;;;;;10.35;6.15;;;;;;;;;;6262812;22;20019;-80
2023/05/10 20:36:03;;;;;;;11.30;5.75;;;;;;;;;;6263732;22;20070;-82
2023/05/10 20:38:29;;;;;;;7.18;5.78;;;;;;;;;;6263890;22;20015;-80
2023/05/10 20:40:58;;;;;;;6.07;4.90;;;;;;;;;;6238135;22;20023;-81
2023/05/10 20:43:27;;;;;;;7.85;6.22;;;;;;;;;;6238255;22;20478;-83
2023/05/10 20:45:54;;;;;;;8.05;5.55;;;;;;;;;;6263759;22;20510;-82
2023/05/10 20:48:20;;;;;;;7.63;6.03;;;;;;;;;;6239182;22;20110;-85
2023/05/10 20:50:52;;;;;;;8.38;5.82;;;;;;;;;;6263479;22;20066;-84
2023/05/10 20:53:21;;;;;;;10.07;6.13;;;;;;;;;;6263462;22;20015;-85
2023/05/10 20:55:47;;;;;;;8.32;5.47;;;;;;;;;;6263847;22;20024;-82
2023/05/10 20:58:16;;;;;;;9.95;5.40;;;;;;;;;;6264160;22;20020;-83
2023/05/10 21:00:43;;;;;;;15.32;5.15;;;;;;;;;;6212407;22;20486;-82
2023/05/10 21:03:09;;;;;;;9.25;4.95;;;;;;;;;;6263259;22;20020;-84
2023/05/10 21:05:35;;;;;;;6.50;5.20;;;;;;;;;;6236736;22;20101;-81
2023/05/10 21:08:01;;;;;;;13.48;4.80;;;;;;;;;;6263714;22;20380;-81
2023/05/10 21:10:27;;;;;;;6.30;4.88;;;;;;;;;;6265236;22;20333;-82
2023/05/10 21:12:54;;;;;;;6.78;4.38;;;12.00;99.90;;;;;;6247523;22;20023;-81